Time;durP1;ratioP1;P1;durP2;ratioP2;P2;SDS_P1;SDS_P2;PMS_P1;PMS_P2;Temp;Humidity;BMP_temperature;BMP_pressure;BME280_temperature;BME280_humidity;BME280_pressure;Samples;Min_cycle;Max_cycle;Signal;HPM_P1;HPM_P2
2023/06/16 00:00:12;;;;;;;5.78;3.33;;;20.10;61.40;;;;;;6269744;22;20016;-72
2023/06/16 00:02:41;;;;;;;5.32;3.72;;;20.10;61.50;;;;;;6270469;22;19996;-71
2023/06/16 00:05:08;;;;;;;5.68;3.90;;;20.10;61.40;;;;;;6270046;22;19999;-72
2023/06/16 00:07:34;;;;;;;4.90;3.65;;;20.10;61.40;;;;;;6270894;22;20083;-71
2023/06/16 00:10:00;;;;;;;4.80;3.47;;;20.10;61.30;;;;;;6271726;22;20027;-71
2023/06/16 00:12:26;;;;;;;5.50;3.17;;;20.00;61.20;;;;;;6272248;22;20479;-72
2023/06/16 00:14:51;;;;;;;5.40;4.13;;;20.00;61.20;;;;;;6272167;22;20436;-71
2023/06/16 00:17:20;;;;;;;9.13;3.60;;;20.00;61.30;;;;;;6271603;22;20003;-72
2023/06/16 00:19:47;;;;;;;3.47;3.15;;;20.00;61.20;;;;;;6272022;22;20000;-71
2023/06/16 00:22:13;;;;;;;4.10;3.22;;;19.90;61.40;;;;;;6271039;22;20000;-71
2023/06/16 00:24:38;;;;;;;3.60;3.17;;;19.90;61.40;;;;;;6273418;22;20368;-72
2023/06/16 00:27:04;;;;;;;6.53;3.33;;;19.90;61.40;;;;;;6273792;22;20053;-72
2023/06/16 00:29:30;;;;;;;5.80;4.43;;;19.80;61.50;;;;;;6274450;22;20004;-72
2023/06/16 00:31:55;;;;;;;8.15;3.70;;;19.80;61.60;;;;;;6273631;22;20397;-71
2023/06/16 00:34:21;;;;;;;9.35;3.75;;;19.80;61.70;;;;;;6274701;22;20425;-72
2023/06/16 00:36:46;;;;;;;9.55;4.15;;;19.70;61.70;;;;;;6273693;22;20004;-72
2023/06/16 00:39:12;;;;;;;9.93;3.53;;;19.70;61.90;;;;;;6274170;22;20086;-72
2023/06/16 00:41:38;;;;;;;6.75;4.25;;;19.70;62.00;;;;;;6274336;22;20647;-72
2023/06/16 00:44:04;;;;;;;4.90;3.60;;;19.60;61.90;;;;;;6273984;22;20303;-72
2023/06/16 00:46:32;;;;;;;4.47;3.85;;;19.60;62.30;;;;;;6274571;22;19996;-71
2023/06/16 00:48:58;;;;;;;5.22;3.72;;;19.60;62.50;;;;;;6273741;22;20079;-72
2023/06/16 00:51:28;;;;;;;3.42;3.13;;;19.60;62.70;;;;;;6273920;22;20479;-71
2023/06/16 00:53:55;;;;;;;6.35;3.75;;;19.50;63.20;;;;;;6273670;22;19995;-71
2023/06/16 00:56:21;;;;;;;5.38;3.65;;;19.50;63.20;;;;;;6274519;22;20785;-72
2023/06/16 00:58:50;;;;;;;5.45;3.90;;;19.50;63.50;;;;;;6246420;22;20441;-72
2023/06/16 01:01:15;;;;;;;4.10;3.80;;;19.40;63.70;;;;;;6273315;22;20010;-72
2023/06/16 01:03:41;;;;;;;5.97;3.92;;;19.40;63.90;;;;;;6273584;22;20074;-71
2023/06/16 01:06:20;;;;;;;6.28;3.38;;;19.40;63.90;;;;;;6245140;22;20009;-71
2023/06/16 01:09:03;;;;;;;4.72;2.90;;;19.30;64.10;;;;;;6271891;22;20307;-71
2023/06/16 01:11:41;;;;;;;3.80;3.40;;;19.30;64.40;;;;;;6272752;22;20437;-70
2023/06/16 01:14:14;;;;;;;5.97;3.28;;;19.30;64.40;;;;;;6273065;22;20036;-71
2023/06/16 01:16:41;;;;;;;6.65;4.05;;;19.30;64.60;;;;;;6246474;22;20004;-71
2023/06/16 01:19:19;;;;;;;6.55;4.05;;;19.20;64.60;;;;;;6272743;22;20491;-71
2023/06/16 01:21:54;;;;;;;4.72;3.30;;;19.20;65.20;;;;;;6273492;22;20046;-71
2023/06/16 01:24:24;;;;;;;5.90;4.22;;;19.20;65.70;;;;;;6273893;22;20003;-71
2023/06/16 01:26:53;;;;;;;3.67;3.38;;;19.10;65.80;;;;;;6273236;22;20434;-71
2023/06/16 01:29:24;;;;;;;4.70;3.60;;;19.10;66.10;;;;;;6273708;22;20083;-71
2023/06/16 01:31:58;;;;;;;5.95;4.20;;;19.10;66.50;;;;;;6273314;22;20056;-71
2023/06/16 01:34:24;;;;;;;5.25;4.38;;;19.00;66.50;;;;;;6273182;22;20000;-71
2023/06/16 01:36:51;;;;;;;5.47;3.70;;;19.00;66.60;;;;;;6246255;22;20086;-71
2023/06/16 01:39:18;;;;;;;4.32;3.50;;;19.00;66.80;;;;;;6245957;22;20011;-71
2023/06/16 01:41:44;;;;;;;4.32;3.53;;;18.90;67.10;;;;;;6273220;22;20007;-71
2023/06/16 01:44:10;;;;;;;4.82;4.20;;;18.90;67.30;;;;;;6273296;22;20048;-71
2023/06/16 01:46:37;;;;;;;4.57;4.15;;;18.80;67.50;;;;;;6273577;22;20000;-71
2023/06/16 01:49:03;;;;;;;5.07;3.80;;;18.80;67.80;;;;;;6272867;22;20008;-71
2023/06/16 01:51:28;;;;;;;4.30;3.85;;;18.70;67.90;;;;;;6273726;22;20425;-71
2023/06/16 01:53:54;;;;;;;8.02;4.45;;;18.70;68.00;;;;;;6272679;22;20031;-71
2023/06/16 01:56:20;;;;;;;6.82;4.18;;;18.60;68.00;;;;;;6273288;22;20421;-72
2023/06/16 01:58:46;;;;;;;5.47;4.22;;;18.60;68.20;;;;;;6273027;22;20441;-71
2023/06/16 02:01:26;;;;;;;4.47;3.75;;;18.60;68.20;;;;;;6272724;22;19999;-71
2023/06/16 02:04:16;;;;;;;6.15;3.67;;;18.50;68.30;;;;;;6272614;22;20772;-71
2023/06/16 02:06:56;;;;;;;4.75;4.15;;;18.50;68.30;;;;;;6272990;22;19996;-71
2023/06/16 02:09:22;;;;;;;5.72;3.95;;;18.50;68.30;;;;;;6273270;22;20014;-71
2023/06/16 02:11:51;;;;;;;6.40;4.13;;;18.40;68.50;;;;;;6273018;22;20008;-71
2023/06/16 02:14:18;;;;;;;7.65;4.32;;;18.30;68.70;;;;;;6272722;22;20066;-70
2023/06/16 02:16:44;;;;;;;4.93;3.67;;;18.30;68.90;;;;;;6272912;22;20011;-71
2023/06/16 02:19:11;;;;;;;5.45;3.47;;;18.30;69.00;;;;;;6271982;22;20430;-71
2023/06/16 02:21:37;;;;;;;5.45;3.35;;;18.30;69.00;;;;;;6273178;22;20056;-71
2023/06/16 02:24:04;;;;;;;4.03;3.63;;;18.30;68.80;;;;;;6272413;22;20074;-70
2023/06/16 02:26:31;;;;;;;4.97;3.90;;;18.30;68.70;;;;;;6273149;22;19992;-71
2023/06/16 02:28:57;;;;;;;3.58;3.28;;;18.30;68.50;;;;;;6272481;22;20004;-70
2023/06/16 02:31:23;;;;;;;7.03;4.28;;;18.30;68.50;;;;;;6273164;22;20497;-70
2023/06/16 02:33:51;;;;;;;6.72;3.75;;;18.30;68.40;;;;;;6272339;22;20076;-71
2023/06/16 02:36:17;;;;;;;6.10;3.60;;;18.30;68.40;;;;;;6272585;22;20000;-70
2023/06/16 02:38:43;;;;;;;4.57;4.13;;;18.30;68.40;;;;;;6272459;22;20026;-70
2023/06/16 02:41:09;;;;;;;12.00;4.47;;;18.20;68.30;;;;;;6272463;22;20418;-71
2023/06/16 02:43:35;;;;;;;5.78;4.43;;;18.20;68.30;;;;;;6273171;22;20000;-72
2023/06/16 02:46:01;;;;;;;9.52;3.70;;;18.20;68.40;;;;;;6272071;22;20000;-71
2023/06/16 02:48:27;;;;;;;8.38;4.28;;;18.20;68.40;;;;;;6272213;22;20004;-70
2023/06/16 02:50:53;;;;;;;4.80;4.35;;;18.20;68.40;;;;;;6272292;22;20026;-71
2023/06/16 02:53:19;;;;;;;4.53;4.13;;;18.20;68.70;;;;;;6272498;22;20413;-71
2023/06/16 02:55:46;;;;;;;5.45;3.92;;;18.20;68.70;;;;;;6245188;22;20084;-71
2023/06/16 02:58:12;;;;;;;8.25;3.72;;;18.10;68.70;;;;;;6244894;22;20426;-71
2023/06/16 03:00:38;;;;;;;5.72;4.63;;;18.10;68.90;;;;;;6271919;22;20177;-71
2023/06/16 03:03:05;;;;;;;4.40;3.63;;;18.10;69.00;;;;;;6272248;22;20429;-71
2023/06/16 03:05:31;;;;;;;5.22;4.25;;;18.00;69.10;;;;;;6272590;22;20433;-70
2023/06/16 03:07:57;;;;;;;7.20;4.35;;;18.10;69.30;;;;;;6272048;22;20453;-71
2023/06/16 03:10:23;;;;;;;5.00;4.00;;;18.10;70.00;;;;;;6272717;22;19996;-71
2023/06/16 03:12:48;;;;;;;5.53;4.40;;;18.00;69.50;;;;;;6272198;22;20006;-71
2023/06/16 03:15:15;;;;;;;6.15;4.35;;;18.00;69.50;;;;;;6271630;22;20007;-71
2023/06/16 03:17:40;;;;;;;4.82;4.25;;;18.00;69.50;;;;;;6272335;22;20004;-71
2023/06/16 03:20:07;;;;;;;8.38;4.03;;;18.00;69.60;;;;;;6272342;22;20022;-71
2023/06/16 03:22:33;;;;;;;6.70;3.50;;;18.00;69.80;;;;;;6245560;22;20307;-71
2023/06/16 03:25:02;;;;;;;5.63;4.00;;;18.00;69.80;;;;;;6271839;22;20057;-71
2023/06/16 03:27:29;;;;;;;5.40;3.72;;;17.90;69.80;;;;;;6245392;22;20066;-71
2023/06/16 03:29:55;;;;;;;4.32;3.60;;;17.90;70.50;;;;;;6271424;22;20024;-71
2023/06/16 03:32:21;;;;;;;6.68;4.72;;;17.90;69.90;;;;;;6245210;22;20004;-71
2023/06/16 03:34:48;;;;;;;6.18;4.50;;;17.80;70.00;;;;;;6272340;22;19991;-71
2023/06/16 03:37:17;;;;;;;7.20;3.85;;;17.80;70.40;;;;;;6271876;22;19999;-71
2023/06/16 03:39:42;;;;;;;8.80;4.57;;;17.80;70.80;;;;;;6244943;22;20027;-71
2023/06/16 03:42:08;;;;;;;6.97;4.70;;;17.70;71.10;;;;;;6245089;22;20004;-71
2023/06/16 03:44:34;;;;;;;4.60;3.70;;;17.70;71.40;;;;;;6244647;22;20042;-70
2023/06/16 03:46:59;;;;;;;4.63;4.00;;;17.70;71.60;;;;;;6270786;22;20000;-71
2023/06/16 03:49:26;;;;;;;4.90;4.30;;;17.60;72.00;;;;;;6271284;22;20008;-70
2023/06/16 03:51:52;;;;;;;4.80;4.38;;;17.60;72.90;;;;;;6271594;22;20004;-71
2023/06/16 03:54:18;;;;;;;4.70;4.22;;;17.50;72.40;;;;;;6271619;22;20321;-71
2023/06/16 03:56:45;;;;;;;6.85;4.38;;;17.60;72.50;;;;;;6243380;22;20011;-71
2023/06/16 03:59:11;;;;;;;5.78;4.50;;;17.50;72.70;;;;;;6243557;22;20059;-71
2023/06/16 04:01:36;;;;;;;5.40;4.18;;;17.50;72.80;;;;;;6272425;22;20015;-71
2023/06/16 04:04:03;;;;;;;6.15;4.43;;;17.50;73.30;;;;;;6271819;22;20010;-71
2023/06/16 04:06:29;;;;;;;5.70;4.63;;;17.50;72.60;;;;;;6272279;22;20472;-71
2023/06/16 04:08:56;;;;;;;5.53;4.55;;;17.50;72.40;;;;;;6271640;22;19996;-71
2023/06/16 04:11:22;;;;;;;5.00;3.90;;;17.50;72.40;;;;;;6272526;22;20022;-71
2023/06/16 04:13:48;;;;;;;5.15;4.65;;;17.50;72.70;;;;;;6271034;22;20002;-71
2023/06/16 04:16:14;;;;;;;7.40;4.10;;;17.50;72.90;;;;;;6272021;22;20075;-70
2023/06/16 04:18:39;;;;;;;5.60;5.05;;;17.50;72.90;;;;;;6245015;22;20007;-71
2023/06/16 04:21:05;;;;;;;7.55;5.18;;;17.50;72.80;;;;;;6272295;22;20016;-71
2023/06/16 04:23:31;;;;;;;6.63;4.57;;;17.50;72.90;;;;;;6272450;22;20298;-70
2023/06/16 04:25:57;;;;;;;4.95;4.45;;;17.50;73.20;;;;;;6271854;22;19991;-71
2023/06/16 04:28:24;;;;;;;5.80;4.78;;;17.50;73.40;;;;;;6271643;22;20028;-70
2023/06/16 04:30:50;;;;;;;5.78;5.18;;;17.50;73.60;;;;;;6271981;22;20004;-71
2023/06/16 04:33:16;;;;;;;7.05;4.78;;;17.50;73.50;;;;;;6244679;22;20412;-71
2023/06/16 04:35:42;;;;;;;6.78;4.28;;;17.50;73.30;;;;;;6271465;22;20034;-71
2023/06/16 04:38:08;;;;;;;6.25;4.90;;;17.50;73.20;;;;;;6271452;22;20057;-74
2023/06/16 04:40:36;;;;;;;6.93;4.80;;;17.50;73.10;;;;;;6272161;22;20003;-71
2023/06/16 04:43:02;;;;;;;8.80;5.05;;;17.60;73.10;;;;;;6270693;22;20004;-71
2023/06/16 04:45:28;;;;;;;6.50;4.28;;;17.50;73.00;;;;;;6272253;22;20323;-71
2023/06/16 04:47:54;;;;;;;8.55;5.65;;;17.60;73.20;;;;;;6271392;22;20003;-71
2023/06/16 04:50:19;;;;;;;5.05;4.55;;;17.60;73.50;;;;;;6272253;22;20003;-71
2023/06/16 04:52:47;;;;;;;5.80;4.72;;;17.60;73.80;;;;;;6271673;22;20003;-72
2023/06/16 04:55:16;;;;;;;6.72;4.78;;;17.60;74.30;;;;;;6271813;22;20399;-72
2023/06/16 04:57:42;;;;;;;7.13;5.18;;;17.70;74.20;;;;;;6271143;22;20022;-72
2023/06/16 05:00:09;;;;;;;9.00;5.20;;;17.70;73.80;;;;;;6271568;22;20460;-72
2023/06/16 05:02:36;;;;;;;8.20;5.07;;;17.70;73.40;;;;;;6272073;22;19992;-71
2023/06/16 05:05:03;;;;;;;7.85;4.55;;;17.70;73.10;;;;;;6271891;22;20362;-71
2023/06/16 05:07:29;;;;;;;6.25;5.20;;;17.80;73.40;;;;;;6271883;22;20080;-71
2023/06/16 05:09:54;;;;;;;7.65;4.78;;;17.80;73.60;;;;;;6271341;22;20067;-71
2023/06/16 05:12:20;;;;;;;7.07;5.05;;;17.80;73.70;;;;;;6246126;22;20031;-71
2023/06/16 05:14:45;;;;;;;9.48;5.88;;;17.80;73.60;;;;;;6273542;22;20329;-71
2023/06/16 05:17:11;;;;;;;5.45;4.88;;;17.90;73.70;;;;;;6273516;22;20047;-71
2023/06/16 05:19:37;;;;;;;6.97;4.70;;;18.00;73.70;;;;;;6273717;22;20060;-71
2023/06/16 05:22:02;;;;;;;5.13;4.63;;;18.10;73.50;;;;;;6273089;22;20023;-71
2023/06/16 05:24:28;;;;;;;6.68;4.22;;;18.10;73.40;;;;;;6273691;22;20006;-71
2023/06/16 05:26:53;;;;;;;6.15;5.00;;;18.20;73.20;;;;;;6272425;22;20000;-71
2023/06/16 05:29:19;;;;;;;6.85;4.88;;;18.30;73.20;;;;;;6273927;22;20004;-71
2023/06/16 05:31:45;;;;;;;5.50;4.95;;;18.40;73.60;;;;;;6273231;22;20057;-71
2023/06/16 05:34:10;;;;;;;6.57;5.18;;;18.40;73.70;;;;;;6273773;22;20420;-71
2023/06/16 05:36:36;;;;;;;6.55;5.03;;;18.50;73.60;;;;;;6246285;22;20057;-71
2023/06/16 05:39:03;;;;;;;5.45;4.43;;;18.50;73.60;;;;;;6245707;22;20008;-71
2023/06/16 05:41:28;;;;;;;5.75;4.60;;;18.60;73.60;;;;;;6273069;22;20425;-71
2023/06/16 05:43:55;;;;;;;5.50;5.00;;;18.70;73.70;;;;;;6246073;22;20014;-71
2023/06/16 05:46:21;;;;;;;5.70;4.82;;;18.70;73.50;;;;;;6273737;22;20024;-71
2023/06/16 05:48:46;;;;;;;7.93;5.18;;;18.80;73.40;;;;;;6273488;22;20425;-71
2023/06/16 05:51:12;;;;;;;7.57;4.03;;;18.80;73.10;;;;;;6245875;22;20119;-72
2023/06/16 05:53:38;;;;;;;7.18;5.35;;;18.90;72.80;;;;;;6273717;22;20061;-73
2023/06/16 05:56:03;;;;;;;6.55;4.93;;;18.90;72.40;;;;;;6245038;22;20010;-72
2023/06/16 05:58:29;;;;;;;7.30;4.28;;;19.00;71.90;;;;;;6273423;22;20069;-72
2023/06/16 06:00:55;;;;;;;6.82;4.18;;;19.00;71.60;;;;;;6272434;22;20011;-72
2023/06/16 06:03:23;;;;;;;6.88;4.00;;;19.10;71.30;;;;;;6273889;22;20043;-72
2023/06/16 06:05:48;;;;;;;5.65;4.82;;;19.20;71.00;;;;;;6272915;22;19996;-71
2023/06/16 06:08:14;;;;;;;5.18;4.35;;;19.20;70.90;;;;;;6273223;22;20038;-71
2023/06/16 06:10:40;;;;;;;5.10;4.22;;;19.30;70.60;;;;;;6272456;22;20004;-71
2023/06/16 06:13:06;;;;;;;6.78;4.80;;;19.30;70.40;;;;;;6273247;22;20004;-72
2023/06/16 06:15:31;;;;;;;5.13;4.50;;;19.40;70.30;;;;;;6273427;22;20084;-72
2023/06/16 06:17:57;;;;;;;7.50;3.65;;;19.40;69.90;;;;;;6272850;22;20011;-72
2023/06/16 06:20:22;;;;;;;7.40;4.50;;;19.50;69.50;;;;;;6273342;22;20066;-71
2023/06/16 06:22:48;;;;;;;5.18;4.18;;;19.50;69.20;;;;;;6272481;22;20067;-70
2023/06/16 06:25:14;;;;;;;4.43;4.00;;;19.60;69.00;;;;;;6272384;22;20466;-71
2023/06/16 06:27:40;;;;;;;4.25;3.85;;;19.60;68.90;;;;;;6273087;22;20014;-72
2023/06/16 06:30:06;;;;;;;5.78;3.63;;;19.70;68.50;;;;;;6272478;22;20460;-71
2023/06/16 06:32:32;;;;;;;4.97;4.03;;;19.80;68.10;;;;;;6273081;22;20011;-71
2023/06/16 06:34:58;;;;;;;7.15;3.88;;;19.90;68.00;;;;;;6272648;22;20004;-72
2023/06/16 06:37:29;;;;;;;6.43;4.07;;;19.90;68.00;;;;;;6272747;22;20405;-71
2023/06/16 06:39:55;;;;;;;8.05;4.15;;;19.90;68.00;;;;;;6244065;22;20010;-71
2023/06/16 06:42:21;;;;;;;7.75;4.55;;;19.90;67.80;;;;;;6273112;22;20011;-72
2023/06/16 06:44:47;;;;;;;6.75;4.93;;;20.00;68.00;;;;;;6272682;22;19999;-71
2023/06/16 06:47:12;;;;;;;6.05;4.65;;;20.00;68.30;;;;;;6245505;22;20007;-71
2023/06/16 06:49:39;;;;;;;6.97;4.47;;;20.00;68.40;;;;;;6272940;22;20000;-71
2023/06/16 06:52:05;;;;;;;6.30;4.53;;;20.00;68.30;;;;;;6272677;22;20026;-72
2023/06/16 06:54:30;;;;;;;6.47;4.28;;;20.00;68.60;;;;;;6272140;22;20038;-71
2023/06/16 06:56:56;;;;;;;6.03;4.18;;;20.00;68.70;;;;;;6272006;22;20000;-72
2023/06/16 06:59:22;;;;;;;4.93;4.35;;;20.00;68.40;;;;;;6272156;22;20019;-72
2023/06/16 07:01:47;;;;;;;7.97;4.50;;;20.00;68.30;;;;;;6272072;22;19996;-72
2023/06/16 07:04:13;;;;;;;6.25;5.00;;;20.00;68.50;;;;;;6272631;22;20003;-72
2023/06/16 07:06:38;;;;;;;5.53;4.20;;;20.10;68.70;;;;;;6272584;22;19992;-72
2023/06/16 07:09:04;;;;;;;5.07;4.10;;;20.20;68.80;;;;;;6244372;22;20010;-72
2023/06/16 07:11:29;;;;;;;5.57;4.28;;;20.20;68.80;;;;;;6272820;22;20329;-72
2023/06/16 07:13:55;;;;;;;9.98;4.72;;;20.30;68.60;;;;;;6271705;22;20418;-72
2023/06/16 07:16:20;;;;;;;4.68;4.13;;;20.30;68.40;;;;;;6272699;22;20004;-71
2023/06/16 07:18:46;;;;;;;4.22;3.83;;;20.40;68.30;;;;;;6272297;22;20007;-72
2023/06/16 07:21:11;;;;;;;5.18;4.43;;;20.40;68.40;;;;;;6272224;22;20014;-72
2023/06/16 07:23:37;;;;;;;8.43;4.00;;;20.50;68.40;;;;;;6271882;22;20033;-72
2023/06/16 07:26:03;;;;;;;6.68;4.88;;;20.60;68.40;;;;;;6271648;22;19995;-72
2023/06/16 07:28:28;;;;;;;8.10;4.93;;;20.70;68.20;;;;;;6245201;22;20007;-72
2023/06/16 07:30:54;;;;;;;5.00;4.50;;;20.70;68.20;;;;;;6271767;22;20302;-72
2023/06/16 07:33:20;;;;;;;4.88;4.47;;;20.80;68.50;;;;;;6271876;22;20003;-72
2023/06/16 07:35:46;;;;;;;6.65;4.35;;;20.90;68.30;;;;;;6272183;22;20421;-71
2023/06/16 07:38:12;;;;;;;7.47;4.50;;;20.90;67.90;;;;;;6270993;22;20008;-71
2023/06/16 07:40:38;;;;;;;6.53;4.10;;;21.00;67.90;;;;;;6272444;22;20006;-71
2023/06/16 07:43:03;;;;;;;7.78;4.43;;;21.20;67.60;;;;;;6244834;22;20000;-72
2023/06/16 07:45:31;;;;;;;6.15;3.83;;;21.20;66.20;;;;;;6245190;22;20010;-73
2023/06/16 07:47:58;;;;;;;4.22;3.60;;;21.30;65.40;;;;;;6243780;22;20164;-72
2023/06/16 07:50:24;;;;;;;5.40;3.42;;;21.40;64.50;;;;;;6245218;22;20421;-70
2023/06/16 07:52:50;;;;;;;4.05;3.35;;;21.60;63.90;;;;;;6271335;22;20007;-70
2023/06/16 07:55:15;;;;;;;5.63;4.50;;;21.70;63.30;;;;;;6244983;22;20164;-71
2023/06/16 07:57:41;;;;;;;4.55;3.60;;;21.80;62.90;;;;;;6271800;22;20000;-71
2023/06/16 08:00:11;;;;;;;4.18;3.83;;;21.90;62.60;;;;;;6244089;22;20011;-71
2023/06/16 08:02:41;;;;;;;4.63;3.53;;;22.00;61.70;;;;;;6272282;22;20365;-71
2023/06/16 08:05:08;;;;;;;6.55;3.97;;;22.10;60.90;;;;;;6244656;22;20030;-71
2023/06/16 08:07:35;;;;;;;4.55;3.70;;;22.20;60.80;;;;;;6272593;22;20002;-74
2023/06/16 08:10:00;;;;;;;3.67;3.33;;;22.40;60.40;;;;;;6273431;22;19996;-73
2023/06/16 08:12:26;;;;;;;5.05;3.97;;;22.50;60.30;;;;;;6272545;22;19996;-74
2023/06/16 08:14:52;;;;;;;4.75;3.55;;;22.50;60.00;;;;;;6272186;22;20007;-73
2023/06/16 08:17:17;;;;;;;5.55;4.00;;;22.60;60.00;;;;;;6271838;22;20491;-73
2023/06/16 08:19:43;;;;;;;4.47;3.40;;;22.70;60.00;;;;;;6271256;22;20000;-73
2023/06/16 08:22:09;;;;;;;4.03;3.63;;;22.70;59.60;;;;;;6271615;22;19995;-73
2023/06/16 08:24:34;;;;;;;4.38;3.65;;;22.80;59.30;;;;;;6271960;22;20044;-73
2023/06/16 08:27:01;;;;;;;5.50;4.22;;;22.90;59.10;;;;;;6271327;22;20004;-74
2023/06/16 08:29:30;;;;;;;4.20;3.60;;;23.00;58.50;;;;;;6272271;22;20101;-74
2023/06/16 08:31:56;;;;;;;4.40;3.63;;;23.00;58.60;;;;;;6270978;22;20000;-72
2023/06/16 08:34:21;;;;;;;3.83;3.35;;;23.10;58.30;;;;;;6271615;22;20356;-74
2023/06/16 08:36:47;;;;;;;5.03;3.60;;;23.20;58.20;;;;;;6271611;22;20026;-74
2023/06/16 08:39:12;;;;;;;4.53;3.70;;;23.20;58.10;;;;;;6271481;22;20058;-74
2023/06/16 08:41:39;;;;;;;8.10;4.10;;;23.30;58.00;;;;;;6271688;22;20539;-74
2023/06/16 08:44:09;;;;;;;8.60;4.43;;;23.30;57.90;;;;;;6271564;22;20000;-72
2023/06/16 08:46:36;;;;;;;5.60;3.78;;;23.40;57.90;;;;;;6273814;22;19996;-74
2023/06/16 08:49:03;;;;;;;5.93;3.88;;;23.50;57.80;;;;;;6273015;22;20031;-74
2023/06/16 08:51:33;;;;;;;3.80;3.25;;;23.60;57.30;;;;;;6246705;22;20008;-74
2023/06/16 08:54:02;;;;;;;3.85;3.55;;;23.70;57.10;;;;;;6273362;22;20000;-73
2023/06/16 08:56:32;;;;;;;8.75;4.28;;;23.80;56.40;;;;;;6246563;22;20006;-73
2023/06/16 08:59:01;;;;;;;5.05;3.88;;;23.80;56.10;;;;;;6245758;22;20035;-73
2023/06/16 09:01:28;;;;;;;4.18;3.65;;;23.80;56.20;;;;;;6273998;22;20321;-73
2023/06/16 09:03:57;;;;;;;5.03;3.72;;;23.90;56.30;;;;;;6272727;22;20030;-74
2023/06/16 09:06:22;;;;;;;4.65;4.25;;;24.00;56.10;;;;;;6246275;22;20038;-73
2023/06/16 09:08:48;;;;;;;3.80;3.40;;;24.00;55.90;;;;;;6273589;22;19999;-73
2023/06/16 09:11:24;;;;;;;5.25;4.20;;;24.10;55.90;;;;;;6271906;22;20014;-73
2023/06/16 09:13:54;;;;;;;5.45;3.55;;;24.10;55.30;;;;;;6272759;22;20371;-73
2023/06/16 09:16:24;;;;;;;5.13;3.45;;;24.20;55.10;;;;;;6274074;22;20023;-74
2023/06/16 09:18:50;;;;;;;5.28;3.88;;;24.20;55.30;;;;;;6273015;22;20066;-73
2023/06/16 09:21:22;;;;;;;5.22;4.35;;;24.30;55.40;;;;;;6273652;22;20079;-73
2023/06/16 09:23:58;;;;;;;4.15;3.70;;;24.30;55.10;;;;;;6272874;22;19999;-74
2023/06/16 09:26:28;;;;;;;4.13;3.63;;;24.40;55.20;;;;;;6273571;22;20122;-74
2023/06/16 09:28:54;;;;;;;5.43;4.30;;;24.60;55.00;;;;;;6272201;22;20002;-74
2023/06/16 09:31:23;;;;;;;4.25;3.70;;;24.60;53.90;;;;;;6273504;22;20377;-73
2023/06/16 09:33:49;;;;;;;4.43;4.03;;;24.70;54.10;;;;;;6272572;22;20034;-73
2023/06/16 09:36:25;;;;;;;4.05;3.53;;;24.80;54.50;;;;;;6273620;22;20026;-74
2023/06/16 09:38:51;;;;;;;7.28;3.90;;;24.90;53.00;;;;;;6273210;22;20425;-74
2023/06/16 09:41:18;;;;;;;4.43;4.05;;;24.90;52.10;;;;;;6273413;22;20000;-74
2023/06/16 09:43:44;;;;;;;4.15;3.80;;;24.90;52.40;;;;;;6273244;22;20029;-75
2023/06/16 09:46:12;;;;;;;6.85;4.20;;;24.90;52.20;;;;;;6246186;22;20083;-74
2023/06/16 09:48:50;;;;;;;4.30;3.65;;;25.00;51.80;;;;;;6273496;22;19999;-74
2023/06/16 09:51:23;;;;;;;4.28;3.95;;;25.00;51.50;;;;;;6247170;22;20087;-73
2023/06/16 09:53:50;;;;;;;3.78;3.45;;;25.00;51.70;;;;;;6273458;22;20000;-74
2023/06/16 09:56:19;;;;;;;6.80;3.47;;;25.10;52.00;;;;;;6273750;22;20079;-73
2023/06/16 09:58:46;;;;;;;5.25;4.75;;;25.10;51.60;;;;;;6246144;22;20010;-73
2023/06/16 10:01:14;;;;;;;4.32;3.72;;;25.20;51.60;;;;;;6272393;22;20046;-74
2023/06/16 10:03:47;;;;;;;4.30;3.90;;;25.30;51.30;;;;;;6273649;22;20031;-72
2023/06/16 10:06:17;;;;;;;4.28;3.88;;;25.40;50.80;;;;;;6271829;22;20003;-71
2023/06/16 10:08:43;;;;;;;4.03;3.63;;;25.40;51.10;;;;;;6271159;22;20003;-71
2023/06/16 10:11:11;;;;;;;4.50;3.50;;;25.50;50.90;;;;;;6270080;22;20383;-72
2023/06/16 10:13:39;;;;;;;4.85;4.05;;;25.50;50.40;;;;;;6245331;22;20314;-76
2023/06/16 10:16:06;;;;;;;4.40;3.58;;;25.60;50.00;;;;;;6271767;22;20006;-75
2023/06/16 10:18:33;;;;;;;4.75;4.35;;;25.60;50.10;;;;;;6272646;22;20011;-75
2023/06/16 10:20:59;;;;;;;4.45;3.80;;;25.60;50.10;;;;;;6241391;22;20006;-77
2023/06/16 10:23:25;;;;;;;5.60;3.80;;;25.70;50.30;;;;;;6272625;22;19999;-75
2023/06/16 10:25:50;;;;;;;3.58;3.28;;;25.80;50.90;;;;;;6271857;22;20102;-75
2023/06/16 10:28:19;;;;;;;5.63;3.72;;;25.90;51.00;;;;;;6241521;22;20014;-76
2023/06/16 10:30:45;;;;;;;4.38;3.97;;;26.00;51.00;;;;;;6271346;22;20046;-74
2023/06/16 10:33:22;;;;;;;4.93;3.92;;;26.10;51.10;;;;;;6272129;22;20453;-73
2023/06/16 10:35:52;;;;;;;4.93;4.03;;;26.20;50.60;;;;;;6272549;22;20022;-74
2023/06/16 10:38:24;;;;;;;5.75;3.92;;;26.30;50.90;;;;;;6270185;22;20003;-72
2023/06/16 10:40:54;;;;;;;9.57;3.88;;;26.30;49.10;;;;;;6244779;22;20004;-71
2023/06/16 10:43:25;;;;;;;5.25;4.10;;;26.20;49.60;;;;;;6272109;22;20047;-73
2023/06/16 10:46:10;;;;;;;6.00;3.50;;;26.20;49.80;;;;;;6244166;22;20001;-74
2023/06/16 10:48:56;;;;;;;8.88;4.03;;;26.20;49.80;;;;;;6245227;22;20026;-73
2023/06/16 10:51:44;;;;;;;5.72;4.00;;;26.40;49.90;;;;;;6245482;22;20003;-72
2023/06/16 10:54:12;;;;;;;5.13;3.83;;;26.40;49.60;;;;;;6245606;22;20000;-72
2023/06/16 10:57:00;;;;;;;5.25;3.63;;;26.40;49.10;;;;;;6245483;22;20007;-73
2023/06/16 10:59:26;;;;;;;4.05;3.33;;;26.40;47.60;;;;;;6271924;22;20030;-73
2023/06/16 11:01:56;;;;;;;4.45;3.35;;;26.40;48.10;;;;;;6272449;22;20078;-71
2023/06/16 11:04:22;;;;;;;6.30;4.28;;;26.50;48.30;;;;;;6245387;22;20007;-72
2023/06/16 11:07:08;;;;;;;5.50;3.90;;;26.60;48.00;;;;;;6270950;22;20003;-71
2023/06/16 11:09:35;;;;;;;6.82;3.40;;;26.60;46.70;;;;;;6272338;22;20023;-72
2023/06/16 11:12:02;;;;;;;3.60;3.30;;;26.50;46.90;;;;;;6244396;22;20015;-71
2023/06/16 11:14:27;;;;;;;4.32;4.03;;;26.60;47.80;;;;;;6271998;22;20006;-72
2023/06/16 11:16:53;;;;;;;4.25;3.72;;;26.70;47.70;;;;;;6271873;22;20075;-72
2023/06/16 11:19:19;;;;;;;4.60;3.83;;;26.80;47.50;;;;;;6271761;22;20010;-70
2023/06/16 11:21:45;;;;;;;4.43;3.40;;;26.90;47.20;;;;;;6244760;22;19999;-70
2023/06/16 11:24:12;;;;;;;3.80;3.45;;;26.90;46.50;;;;;;6244635;22;20095;-72
2023/06/16 11:26:38;;;;;;;4.70;3.83;;;27.00;46.50;;;;;;6245220;22;20011;-73
2023/06/16 11:29:07;;;;;;;3.83;3.50;;;27.00;46.40;;;;;;6271234;22;20004;-73
2023/06/16 11:31:37;;;;;;;4.28;3.88;;;26.90;45.80;;;;;;6245299;22;20004;-73
2023/06/16 11:34:03;;;;;;;6.00;3.65;;;26.90;46.20;;;;;;6272189;22;20034;-73
2023/06/16 11:36:29;;;;;;;6.70;4.10;;;26.90;46.60;;;;;;6272572;22;19992;-73
2023/06/16 11:38:55;;;;;;;4.32;3.90;;;27.10;46.50;;;;;;6270652;22;20038;-73
2023/06/16 11:41:27;;;;;;;4.40;4.00;;;27.20;46.20;;;;;;6272520;22;19995;-73
2023/06/16 11:43:53;;;;;;;6.45;4.15;;;27.30;46.10;;;;;;6271754;22;20057;-73
2023/06/16 11:46:24;;;;;;;4.28;3.85;;;27.30;46.00;;;;;;6272569;22;20006;-73
2023/06/16 11:48:50;;;;;;;5.63;4.07;;;27.40;45.60;;;;;;6272488;22;20010;-73
2023/06/16 11:51:16;;;;;;;6.38;3.97;;;27.40;45.70;;;;;;6272336;22;20004;-73
2023/06/16 11:53:43;;;;;;;4.10;3.70;;;27.40;45.90;;;;;;6245289;22;20388;-73
2023/06/16 11:56:13;;;;;;;4.65;4.10;;;27.60;46.10;;;;;;6272152;22;20023;-73
2023/06/16 11:58:42;;;;;;;5.00;3.78;;;27.70;46.40;;;;;;6244464;22;20015;-73
2023/06/16 12:01:08;;;;;;;6.13;4.00;;;27.90;46.40;;;;;;6271652;22;20019;-73
2023/06/16 12:03:37;;;;;;;3.60;3.28;;;28.00;46.20;;;;;;6244698;22;20101;-73
2023/06/16 12:06:05;;;;;;;5.60;4.00;;;28.10;45.80;;;;;;6244333;22;20049;-73
2023/06/16 12:08:44;;;;;;;4.57;4.18;;;28.20;45.30;;;;;;6272191;22;20057;-73
2023/06/16 12:11:21;;;;;;;4.28;3.88;;;28.20;45.70;;;;;;6244732;22;20032;-75
2023/06/16 12:13:47;;;;;;;3.92;3.55;;;28.30;45.60;;;;;;6270612;22;20065;-72
2023/06/16 12:16:13;;;;;;;4.03;3.65;;;28.40;45.30;;;;;;6271362;22;20000;-73
2023/06/16 12:18:38;;;;;;;4.40;3.95;;;28.40;45.40;;;;;;6271410;22;20003;-69
2023/06/16 12:21:17;;;;;;;4.70;4.15;;;28.50;45.10;;;;;;6272558;22;20305;-69
2023/06/16 12:23:58;;;;;;;7.60;3.95;;;28.60;45.00;;;;;;6272931;22;20061;-69
2023/06/16 12:26:40;;;;;;;5.38;4.13;;;28.60;45.30;;;;;;6272465;22;20011;-69
2023/06/16 12:29:10;;;;;;;3.97;3.58;;;28.60;45.00;;;;;;6273239;22;19996;-69
2023/06/16 12:31:36;;;;;;;6.03;3.88;;;28.70;45.10;;;;;;6273653;22;20003;-70
2023/06/16 12:34:02;;;;;;;5.32;3.50;;;28.70;45.60;;;;;;6272207;22;20042;-69
2023/06/16 12:36:28;;;;;;;5.85;3.58;;;28.80;45.50;;;;;;6272309;22;20007;-69
2023/06/16 12:38:55;;;;;;;5.72;3.63;;;28.90;45.00;;;;;;6270574;22;20068;-69
2023/06/16 12:41:21;;;;;;;4.40;3.72;;;28.90;43.90;;;;;;6272176;22;20000;-70
2023/06/16 12:43:51;;;;;;;4.03;3.67;;;28.80;44.30;;;;;;6272948;22;20019;-70
2023/06/16 12:46:18;;;;;;;4.03;3.70;;;28.90;44.20;;;;;;6273552;22;20003;-70
2023/06/16 12:48:45;;;;;;;5.68;3.92;;;28.90;44.50;;;;;;6273411;22;20083;-70